Tropical Cyclones
[Index]
Main Index Home Page Stock Weather Photos Extreme Storms Discussion Storm News and Storm Chasing Reports Tropical Cyclones / Hurricanes / Typhoons Weather Data and Links Wild Fires / Bushfires Weather Observation Techniques Weather Picture Catalogue Tornado Pictures and Reports Stock Video Footage and DVDs for sale
Season 2002-2003 Tropical Cyclone TROP-DISTURBANCE-01 Track Map
Season 2002-2003 Summaries (Operational Data): [AU] [SIO] [SPAC] [SH]
<<- Previous TC | 2002-2003 Season | Next TC ->>

click for intensity scale information  Lat/long Grid: Show Hide

 Date Labels: Show Hide

Operational Tropical Cyclone Data

Name: TROP-DISTURBANCE-01
Number: 03SA

06 Jan 2003 00:00 UTC to 12 Jan 2003 06:00 UTC

    date/time    lat    long     hPa   cat  kts
2003-01-06 00   16.5    41.4    1000         25          
2003-01-06 06   17.0    39.8    1000         25          
2003-01-06 12   17.2    38.3    1000         25          
2003-01-06 18   17.9    38.3    1000         25          
2003-01-07 00   18.8    38.1    1000         25          
2003-01-07 06   19.5    37.4    1000         25          
2003-01-07 12   20.5    37.0    1000         25          
2003-01-07 18   21.5    37.7    1000         25          
2003-01-08 00   21.7    39.0    1000         25          
2003-01-08 06   22.9    38.3    1000         25          
2003-01-08 12   23.7    37.9    1000         25          
2003-01-08 18   24.0    38.0    1000         25          
2003-01-09 00   25.6    38.6    1000         25          
2003-01-09 06   26.9    38.7    1000         25          
2003-01-09 12   27.4    39.4    1000         25          
2003-01-09 18   27.5    40.4    1000         25          
2003-01-10 00   27.5    40.9    1000         25          
2003-01-10 06   28.0    41.3    1002         25          
2003-01-10 18   27.3    43.2    1000         25          
2003-01-11 00   26.3    43.2    1000         25          
2003-01-11 06   26.2    42.7    1004         20          
2003-01-11 12   26.0    42.4    1004         20          
2003-01-11 18   25.6    42.9    1005         20          
2003-01-12 00   26.0    43.3    1006         20          
2003-01-12 06   27.0    45.0    1006         20          
Winds are 10-min average.

Tropical cyclone tracks developed by Michael Bath using operational warnings and advisories and Google Maps.


[Australian Severe Weather index] [Copyright Notice] [Email Contacts] [Search This Site] [Privacy Policy]
Document: tropical_cyclone_trop-disturbance-01.htm Updated: 2 May 2017